Time;durP1;ratioP1;P1;durP2;ratioP2;P2;SDS_P1;SDS_P2;PMS_P1;PMS_P2;Temp;Humidity;BMP_temperature;BMP_pressure;BME280_temperature;BME280_humidity;BME280_pressure;Samples;Min_cycle;Max_cycle;Signal;HPM_P1;HPM_P2
2021/12/28 00:01:13;;;;;;;40.65;9.52;;;;;;;7.04;100.00;99377.38;5116070;28;20351;-65
2021/12/28 00:03:42;;;;;;;32.75;9.52;;;;;;;6.93;100.00;99364.59;5115833;28;20439;-64
2021/12/28 00:06:08;;;;;;;37.47;9.10;;;;;;;6.90;100.00;99371.63;5115560;28;20076;-63
2021/12/28 00:08:34;;;;;;;35.67;9.52;;;;;;;6.86;100.00;99363.03;5115638;28;20027;-65
2021/12/28 00:10:59;;;;;;;31.40;9.38;;;;;;;6.82;100.00;99360.53;5115584;28;20028;-64
2021/12/28 00:13:26;;;;;;;34.60;9.10;;;;;;;6.80;100.00;99372.69;5115541;28;20051;-64
2021/12/28 00:18:20;;;;;;;46.45;10.85;;;;;;;6.73;100.00;99361.59;5115445;28;20040;-63
2021/12/28 00:20:48;;;;;;;41.90;10.25;;;;;;;6.76;100.00;99360.66;5115180;28;20431;-65
2021/12/28 00:23:17;;;;;;;42.33;9.77;;;;;;;6.73;100.00;99359.00;5115511;28;20047;-66
2021/12/28 00:25:43;;;;;;;44.22;9.88;;;;;;;6.73;100.00;99352.94;5115495;28;20031;-63
2021/12/28 00:28:08;;;;;;;37.88;9.80;;;;;;;6.71;100.00;99352.13;5115541;28;20032;-65
2021/12/28 00:30:34;;;;;;;36.00;8.93;;;;;;;6.73;100.00;99352.94;5115192;28;20102;-64
2021/12/28 00:32:59;;;;;;;47.00;9.63;;;;;;;6.72;100.00;99346.03;5115026;28;20032;-67
2021/12/28 00:35:32;;;;;;;40.38;9.35;;;;;;;6.72;100.00;99349.50;5115365;28;20031;-65
2021/12/28 00:37:58;;;;;;;51.78;9.80;;;;;;;6.68;100.00;99344.38;5115386;28;20036;-65
2021/12/28 00:40:24;;;;;;;45.40;9.23;;;;;;;6.68;100.00;99346.97;5115433;28;20104;-63
2021/12/28 00:42:49;;;;;;;39.70;9.25;;;;;;;6.70;100.00;99346.06;5118524;28;20108;-65
2021/12/28 00:45:16;;;;;;;43.15;9.00;;;;;;;6.69;100.00;99333.94;5119587;28;20423;-65
2021/12/28 00:47:42;;;;;;;46.00;9.30;;;;;;;6.66;100.00;99339.22;5119381;28;20342;-64
2021/12/28 00:50:09;;;;;;;39.00;9.27;;;;;;;6.67;100.00;99334.88;5119577;28;20122;-64
2021/12/28 00:52:34;;;;;;;43.22;9.50;;;;;;;6.72;100.00;99331.28;5119526;28;20043;-65
2021/12/28 00:55:01;;;;;;;44.38;9.77;;;;;;;6.77;100.00;99332.03;5119034;28;20116;-63
2021/12/28 00:57:26;;;;;;;47.35;9.30;;;;;;;6.78;100.00;99322.47;5119378;28;20065;-65
2021/12/28 00:59:51;;;;;;;49.60;9.13;;;;;;;6.86;100.00;99320.56;5119184;28;20034;-65
2021/12/28 01:02:17;;;;;;;43.33;8.23;;;;;;;6.84;100.00;99319.75;5119045;28;20038;-65
2021/12/28 01:04:43;;;;;;;48.92;8.50;;;;;;;6.86;100.00;99315.38;5118860;28;20031;-64
2021/12/28 01:07:08;;;;;;;38.70;8.55;;;;;;;6.78;100.00;99312.09;5118984;28;20032;-68
2021/12/28 01:09:33;;;;;;;45.28;9.32;;;;;;;6.71;100.00;99310.53;5119420;28;20028;-63
2021/12/28 01:12:00;;;;;;;36.97;7.97;;;;;;;6.72;100.00;99320.03;5119046;28;20043;-65
2021/12/28 01:14:26;;;;;;;47.72;8.43;;;;;;;6.64;100.00;99309.78;5119144;28;20400;-65
2021/12/28 01:16:52;;;;;;;48.97;8.75;;;;;;;6.64;100.00;99308.06;5119077;28;20055;-64
2021/12/28 01:19:17;;;;;;;54.78;8.52;;;;;;;6.61;100.00;99310.72;5118708;28;20041;-65
2021/12/28 01:21:43;;;;;;;45.85;9.23;;;;;;;6.61;100.00;99300.31;5119018;28;20031;-66
2021/12/28 01:24:08;;;;;;;51.63;9.00;;;;;;;6.57;100.00;99303.03;5118872;28;20416;-64
2021/12/28 01:26:33;;;;;;;41.53;8.48;;;;;;;6.57;100.00;99309.09;5118750;28;20080;-65
2021/12/28 01:28:59;;;;;;;49.70;8.10;;;;;;;6.49;100.00;99292.81;5118603;28;20035;-65
2021/12/28 01:31:24;;;;;;;38.13;7.63;;;;;;;6.54;100.00;99303.97;5118212;28;20031;-64
2021/12/28 01:33:49;;;;;;;41.45;7.65;;;;;;;6.51;100.00;99303.16;5118590;28;20354;-66
2021/12/28 01:36:15;;;;;;;46.05;8.38;;;;;;;6.54;100.00;99305.69;5118837;28;20065;-66
2021/12/28 01:38:40;;;;;;;40.83;7.45;;;;;;;6.51;100.00;99293.63;5118504;28;20076;-65
2021/12/28 01:41:09;;;;;;;47.35;7.82;;;;;;;6.57;100.00;99308.25;5118503;28;20032;-64
2021/12/28 01:43:34;;;;;;;52.25;8.05;;;;;;;6.53;100.00;99301.38;5118269;28;20027;-64
2021/12/28 01:46:00;;;;;;;46.25;8.13;;;;;;;6.52;100.00;99295.34;5118511;28;20135;-66
2021/12/28 01:48:35;;;;;;;54.60;8.25;;;;;;;6.54;100.00;99301.38;5118232;28;20027;-65
2021/12/28 01:51:08;;;;;;;49.25;7.95;;;;;;;6.58;100.00;99304.75;5118333;28;20035;-64
2021/12/28 01:53:34;;;;;;;51.20;8.68;;;;;;;6.58;100.00;99297.78;5117189;28;20027;-65
2021/12/28 01:56:04;;;;;;;50.03;8.95;;;;;;;6.61;100.00;99305.53;5118059;28;20041;-66
2021/12/28 01:58:30;;;;;;;55.85;9.38;;;;;;;6.60;100.00;99295.16;5118350;28;20060;-64
2021/12/28 02:00:56;;;;;;;51.13;8.98;;;;;;;6.65;100.00;99293.31;5118027;28;20113;-65
2021/12/28 02:03:26;;;;;;;47.85;8.70;;;;;;;6.68;100.00;99289.78;5118006;28;20332;-64
2021/12/28 02:05:52;;;;;;;42.97;8.32;;;;;;;6.71;100.00;99285.38;5117981;28;20407;-66
2021/12/28 02:08:18;;;;;;;59.83;8.60;;;;;;;6.77;100.00;99290.44;5117920;28;20081;-67
2021/12/28 02:10:46;;;;;;;43.65;8.20;;;;;;;6.82;100.00;99296.38;5117918;28;20461;-64
2021/12/28 02:13:11;;;;;;;44.63;8.73;;;;;;;6.85;100.00;99293.72;5117769;28;20446;-65
2021/12/28 02:15:37;;;;;;;52.33;7.93;;;;;;;6.88;100.00;99291.06;5117861;28;20091;-64
2021/12/28 02:18:05;;;;;;;50.75;8.85;;;;;;;6.90;100.00;99291.88;5117958;28;20040;-66
2021/12/28 02:20:31;;;;;;;46.45;8.32;;;;;;;6.95;100.00;99299.53;5117650;28;20488;-65
2021/12/28 02:22:57;;;;;;;50.42;8.70;;;;;;;6.91;100.00;99282.34;5117834;28;20146;-65
2021/12/28 02:25:22;;;;;;;40.22;7.50;;;;;;;6.96;100.00;99286.50;5117496;28;20023;-66
2021/12/28 02:27:47;;;;;;;48.80;8.38;;;;;;;7.01;100.00;99290.75;5117581;28;20434;-64
2021/12/28 02:30:18;;;;;;;48.20;7.65;;;;;;;7.02;100.00;99288.13;5117651;28;20046;-66
2021/12/28 02:32:45;;;;;;;44.70;7.93;;;;;;;7.06;100.00;99281.97;5117539;28;20051;-67
2021/12/28 02:35:14;;;;;;;54.90;8.70;;;;;;;7.04;100.00;99278.53;5117596;28;20050;-64
2021/12/28 02:37:40;;;;;;;45.65;7.57;;;;;;;7.06;100.00;99274.16;5117505;28;20106;-64
2021/12/28 02:40:07;;;;;;;45.90;7.50;;;;;;;7.07;100.00;99275.88;5117584;28;20082;-64
2021/12/28 02:42:34;;;;;;;48.40;7.47;;;;;;;7.04;100.00;99277.69;5117203;28;20114;-66
2021/12/28 02:45:10;;;;;;;41.08;6.63;;;;;;;7.03;100.00;99291.56;5117086;28;20114;-65
2021/12/28 02:47:41;;;;;;;45.28;7.50;;;;;;;7.03;100.00;99283.78;5117315;28;20031;-65
2021/12/28 02:50:12;;;;;;;42.33;7.15;;;;;;;7.02;100.00;99280.31;5117548;28;20361;-64
2021/12/28 02:52:38;;;;;;;48.13;7.67;;;;;;;7.04;100.00;99272.47;5116933;28;20028;-66
2021/12/28 02:55:09;;;;;;;41.40;6.80;;;;;;;7.05;100.00;99266.38;5116831;28;20476;-64
2021/12/28 02:57:35;;;;;;;39.70;7.35;;;;;;;7.04;100.00;99255.13;5117060;28;20089;-64
2021/12/28 03:00:02;;;;;;;50.88;7.32;;;;;;;7.05;100.00;99254.25;5116915;28;20059;-64
2021/12/28 03:02:27;;;;;;;47.17;8.15;;;;;;;7.08;100.00;99242.91;5116909;28;20031;-64
2021/12/28 03:04:52;;;;;;;50.80;8.55;;;;;;;7.02;100.00;99238.72;5116600;28;20038;-65
2021/12/28 03:07:18;;;;;;;49.72;7.10;;;;;;;7.05;100.00;99236.03;5117101;28;20088;-64
2021/12/28 03:09:43;;;;;;;50.28;7.10;;;;;;;7.09;100.00;99237.69;5116401;28;20340;-64
2021/12/28 03:12:09;;;;;;;44.17;6.75;;;;;;;7.09;100.00;99242.88;5116865;28;20047;-64
2021/12/28 03:14:35;;;;;;;41.65;6.85;;;;;;;7.07;100.00;99242.06;5116671;28;20425;-64
2021/12/28 03:17:00;;;;;;;40.58;6.50;;;;;;;7.07;100.00;99244.66;5116695;28;20118;-66
2021/12/28 03:19:26;;;;;;;46.75;7.45;;;;;;;7.08;100.00;99248.13;5116542;28;20028;-64
2021/12/28 03:21:51;;;;;;;44.45;7.15;;;;;;;6.99;100.00;99243.97;5116451;28;20024;-64
2021/12/28 03:24:17;;;;;;;38.13;6.20;;;;;;;7.01;100.00;99243.94;5116600;28;20039;-65
2021/12/28 03:26:43;;;;;;;38.05;6.43;;;;;;;7.01;100.00;99243.94;5116367;28;20032;-66
2021/12/28 03:29:09;;;;;;;47.88;6.88;;;;;;;6.99;100.00;99233.56;5116652;28;20354;-65
2021/12/28 03:31:34;;;;;;;53.15;6.80;;;;;;;7.03;100.00;99237.81;5116532;28;20431;-66
2021/12/28 03:34:00;;;;;;;39.15;7.20;;;;;;;7.10;100.00;99231.56;5116143;28;20028;-64
2021/12/28 03:36:30;;;;;;;42.72;6.85;;;;;;;7.19;100.00;99239.13;5116174;28;20437;-65
2021/12/28 03:38:57;;;;;;;44.20;7.15;;;;;;;7.24;100.00;99234.69;5115830;28;20418;-66
2021/12/28 03:41:25;;;;;;;43.22;6.32;;;;;;;7.26;100.00;99221.63;5116142;28;20039;-65
2021/12/28 03:43:52;;;;;;;35.17;5.20;;;;;;;7.31;100.00;99223.19;5116077;28;20342;-64
2021/12/28 03:46:19;;;;;;;34.50;6.78;;;;;;;7.34;100.00;99207.53;5116400;28;20035;-64
2021/12/28 03:48:44;;;;;;;40.67;5.40;;;;;;;7.42;100.00;99214.28;5097987;28;20393;-66
2021/12/28 03:51:10;;;;;;;35.08;5.53;;;;;;;7.41;100.00;99215.16;5115822;28;20039;-62
2021/12/28 03:53:36;;;;;;;39.65;5.45;;;;;;;7.33;100.00;99203.19;5115591;28;20101;-65
2021/12/28 03:56:03;;;;;;;34.75;5.55;;;;;;;7.34;100.00;99207.53;5116070;28;20028;-66
2021/12/28 03:58:29;;;;;;;34.60;5.25;;;;;;;7.41;100.00;99196.97;5115756;28;20035;-64
2021/12/28 04:00:54;;;;;;;37.15;5.25;;;;;;;7.33;100.00;99198.00;5116103;28;20023;-65
2021/12/28 04:03:19;;;;;;;35.10;5.13;;;;;;;7.36;100.00;99193.63;5115792;28;20399;-64
2021/12/28 04:05:45;;;;;;;32.83;5.05;;;;;;;7.41;100.00;99186.53;5116000;28;20028;-66
2021/12/28 04:08:20;;;;;;;39.38;5.55;;;;;;;7.48;100.00;99195.88;5115809;28;20031;-63
2021/12/28 04:10:52;;;;;;;40.42;5.53;;;;;;;7.54;100.00;99193.13;5115646;28;20039;-65
2021/12/28 04:13:18;;;;;;;;;;;;;;;7.69;100.00;99190.09;5115341;28;20458;-64
2021/12/28 04:15:43;;;;;;;38.03;4.93;;;;;;;7.58;100.00;99192.13;5115424;28;19941;-66
2021/12/28 04:18:09;;;;;;;36.30;4.97;;;;;;;7.59;100.00;99186.91;5115253;28;20031;-66
2021/12/28 04:20:34;;;;;;;32.80;6.00;;;;;;;7.60;100.00;99190.34;5115818;28;20039;-67
2021/12/28 04:23:00;;;;;;;43.45;5.53;;;;;;;7.63;100.00;99179.81;5115191;28;20024;-64
2021/12/28 04:25:25;;;;;;;35.83;5.18;;;;;;;7.71;100.00;99192.66;5115611;28;20069;-65
2021/12/28 04:27:50;;;;;;;31.27;4.38;;;;;;;7.66;100.00;99183.22;5115739;28;20092;-65
2021/12/28 04:30:16;;;;;;;34.63;4.85;;;;;;;7.69;100.00;99184.88;5115476;28;20088;-64
2021/12/28 04:32:42;;;;;;;35.13;6.00;;;;;;;7.72;100.00;99189.16;5115246;28;20423;-64
2021/12/28 04:35:09;;;;;;;30.60;4.93;;;;;;;7.74;100.00;99187.34;5115180;28;20031;-65
2021/12/28 04:37:35;;;;;;;28.83;4.53;;;;;;;7.79;100.00;99183.72;5115184;28;20039;-65
2021/12/28 04:40:00;;;;;;;27.40;4.10;;;;;;;7.80;100.00;99193.22;5115613;28;20092;-65
2021/12/28 04:42:28;;;;;;;25.50;4.03;;;;;;;7.77;100.00;99195.09;5115525;28;20423;-66
2021/12/28 04:44:54;;;;;;;29.58;4.30;;;;;;;7.79;100.00;99199.34;5115426;28;20447;-65
2021/12/28 04:47:19;;;;;;;24.27;3.75;;;;;;;7.84;100.00;99204.41;5115105;28;20084;-65
2021/12/28 04:49:45;;;;;;;22.38;3.80;;;;;;;7.94;100.00;99203.28;5115381;28;20031;-63
2021/12/28 04:52:11;;;;;;;27.25;4.13;;;;;;;7.94;100.00;99200.66;5115056;28;20435;-66
2021/12/28 04:54:37;;;;;;;23.33;3.95;;;;;;;7.90;100.00;99202.50;5115800;28;20043;-65
2021/12/28 04:57:05;;;;;;;28.05;3.78;;;;;;;7.92;100.00;99202.44;5115146;28;20027;-67
2021/12/28 04:59:30;;;;;;;23.65;3.58;;;;;;;7.89;100.00;99192.13;5115093;28;20438;-64
2021/12/28 05:01:55;;;;;;;22.52;3.75;;;;;;;7.88;100.00;99198.22;5115015;28;20042;-67
2021/12/28 05:04:21;;;;;;;22.25;3.42;;;;;;;7.89;100.00;99198.19;5114976;28;20042;-64
2021/12/28 05:06:46;;;;;;;23.58;3.58;;;;;;;7.94;100.00;99201.53;5115077;28;20046;-66
2021/12/28 05:09:15;;;;;;;25.08;3.42;;;;;;;7.94;100.00;99200.66;5115206;28;20024;-64
2021/12/28 05:11:41;;;;;;;21.63;3.67;;;;;;;7.98;100.00;99186.63;5115005;28;20383;-64
2021/12/28 05:14:08;;;;;;;18.67;3.03;;;;;;;7.94;100.00;99185.88;5115112;28;20051;-63
2021/12/28 05:16:34;;;;;;;26.60;3.55;;;;;;;7.94;100.00;99185.03;5115179;28;20039;-65
2021/12/28 05:19:01;;;;;;;21.10;3.47;;;;;;;7.94;100.00;99175.47;5115071;28;20184;-66
2021/12/28 05:21:26;;;;;;;20.05;3.05;;;;;;;7.94;100.00;99177.22;5115062;28;20041;-65
2021/12/28 05:23:52;;;;;;;18.33;3.45;;;;;;;7.96;100.00;99184.09;5114938;28;20111;-66
2021/12/28 05:26:17;;;;;;;20.63;3.30;;;;;;;7.92;100.00;99181.63;5114882;28;20039;-66
2021/12/28 05:28:43;;;;;;;21.08;3.58;;;;;;;7.94;100.00;99175.47;5117659;28;20034;-64
2021/12/28 05:31:09;;;;;;;26.15;3.72;;;;;;;7.96;100.00;99172.81;5118798;28;20058;-66
2021/12/28 05:33:34;;;;;;;14.73;2.67;;;;;;;7.95;100.00;99171.13;5118521;28;20059;-66
2021/12/28 05:36:00;;;;;;;23.48;3.40;;;;;;;7.91;100.00;99159.94;5118417;28;20016;-64
2021/12/28 05:38:25;;;;;;;19.65;2.75;;;;;;;7.98;100.00;99176.22;5118603;28;20039;-64
2021/12/28 05:40:50;;;;;;;23.08;3.17;;;;;;;7.90;100.00;99149.56;5118956;28;20031;-64
2021/12/28 05:43:15;;;;;;;21.27;3.00;;;;;;;7.98;100.00;99169.25;5118700;28;20036;-64
2021/12/28 05:45:42;;;;;;;19.40;3.30;;;;;;;8.01;100.00;99166.56;5118327;28;20338;-63
2021/12/28 05:48:08;;;;;;;18.50;3.40;;;;;;;7.98;100.00;99169.25;5118667;28;20036;-66
2021/12/28 05:50:33;;;;;;;20.08;2.88;;;;;;;8.00;100.00;99164.84;5118225;28;20110;-64
2021/12/28 05:52:59;;;;;;;17.50;3.22;;;;;;;7.96;100.00;99157.19;5118704;28;20043;-64
2021/12/28 05:55:24;;;;;;;26.73;3.38;;;;;;;7.87;100.00;99131.41;5118291;28;20020;-64
2021/12/28 05:57:49;;;;;;;15.85;2.92;;;;;;;7.99;100.00;99147.50;5117749;28;20054;-64
2021/12/28 06:00:16;;;;;;;14.43;3.47;;;;;;;7.98;100.00;99144.94;5118024;28;20172;-66
2021/12/28 06:02:41;;;;;;;20.15;3.42;;;;;;;8.04;100.00;99150.00;5118030;28;20058;-65
2021/12/28 06:05:07;;;;;;;15.23;3.05;;;;;;;8.05;100.00;99149.09;5118103;28;20412;-65
2021/12/28 06:07:32;;;;;;;15.40;2.67;;;;;;;8.09;100.00;99136.84;5118134;28;20031;-66
2021/12/28 06:09:58;;;;;;;12.75;2.75;;;;;;;8.14;100.00;99146.19;5118113;28;20303;-65
2021/12/28 06:12:24;;;;;;;15.52;2.80;;;;;;;8.15;100.00;99141.84;5117779;28;20126;-62
2021/12/28 06:14:50;;;;;;;16.27;2.30;;;;;;;8.18;100.00;99131.31;5117870;28;20059;-66
2021/12/28 06:17:15;;;;;;;12.10;2.30;;;;;;;8.13;100.00;99134.09;5117941;28;20036;-66
2021/12/28 06:19:40;;;;;;;20.00;2.78;;;;;;;8.01;100.00;99114.47;5117913;28;20084;-64
2021/12/28 06:22:05;;;;;;;12.80;2.58;;;;;;;8.10;100.00;99130.72;5117764;28;20031;-64
2021/12/28 06:24:31;;;;;;;11.98;2.35;;;;;;;8.09;100.00;99127.25;5117779;28;20088;-64
2021/12/28 06:26:56;;;;;;;9.25;2.47;;;;;;;8.11;100.00;99122.88;5117743;28;20042;-63
2021/12/28 06:29:21;;;;;;;15.57;2.78;;;;;;;8.18;100.00;99126.13;5117587;28;20435;-64
2021/12/28 06:31:47;;;;;;;10.27;2.15;;;;;;;8.11;100.00;99124.63;5117438;28;20023;-64
2021/12/28 06:34:12;;;;;;;9.73;2.00;;;;;;;8.06;100.00;99103.91;5117447;28;20035;-65
2021/12/28 06:36:38;;;;;;;17.73;2.58;;;;;;;8.09;100.00;99111.63;5099249;28;20058;-65
2021/12/28 06:39:03;;;;;;;15.30;2.33;;;;;;;8.13;100.00;99115.84;5116682;28;20496;-64
2021/12/28 06:41:29;;;;;;;10.63;2.33;;;;;;;8.10;100.00;99096.84;5117368;28;20093;-65
2021/12/28 06:43:54;;;;;;;13.23;2.20;;;;;;;8.08;100.00;99117.75;5117324;28;20035;-65
2021/12/28 06:46:19;;;;;;;12.88;2.17;;;;;;;8.11;100.00;99114.19;5117240;28;20442;-65
2021/12/28 06:48:45;;;;;;;13.25;2.40;;;;;;;8.00;100.00;99111.91;5117040;28;20051;-64
2021/12/28 06:51:11;;;;;;;15.60;2.40;;;;;;;8.08;100.00;99109.94;5117123;28;20342;-64
2021/12/28 06:53:37;;;;;;;12.57;2.25;;;;;;;8.22;100.00;99112.09;5117352;28;20098;-63
2021/12/28 06:56:05;;;;;;;10.77;2.33;;;;;;;8.13;100.00;99099.38;5117143;28;20074;-64
2021/12/28 06:58:30;;;;;;;10.68;2.30;;;;;;;8.12;100.00;99102.88;5116985;28;20072;-68
2021/12/28 07:00:56;;;;;;;13.18;1.90;;;;;;;8.11;100.00;99119.41;5117099;28;20036;-65
2021/12/28 07:03:22;;;;;;;11.80;2.40;;;;;;;8.04;100.00;99103.97;5116672;28;20160;-67
2021/12/28 07:05:47;;;;;;;8.05;2.00;;;;;;;8.01;100.00;99101.44;5116632;28;20484;-66
2021/12/28 07:08:13;;;;;;;13.55;2.40;;;;;;;8.03;100.00;99102.25;5116721;28;20110;-64
2021/12/28 07:10:38;;;;;;;9.20;2.00;;;;;;;8.23;100.00;99105.97;5116860;28;20088;-64
2021/12/28 07:13:04;;;;;;;8.10;1.98;;;;;;;8.19;100.00;99101.75;5116493;28;20052;-66
2021/12/28 07:15:29;;;;;;;11.07;2.00;;;;;;;8.19;100.00;99101.75;5116621;28;20151;-65
2021/12/28 07:17:55;;;;;;;6.57;1.73;;;;;;;8.29;100.00;99104.03;5116687;28;20047;-66
2021/12/28 07:20:20;;;;;;;11.07;2.20;;;;;;;8.23;100.00;99103.38;5116718;28;20361;-64
2021/12/28 07:22:46;;;;;;;11.60;2.00;;;;;;;8.24;100.00;99105.94;5116854;28;20443;-65
2021/12/28 07:25:11;;;;;;;8.30;1.80;;;;;;;8.25;100.00;99106.78;5116402;28;20043;-63
2021/12/28 07:27:37;;;;;;;9.10;1.75;;;;;;;8.31;100.00;99109.22;5116323;28;20043;-64
2021/12/28 07:30:06;;;;;;;7.78;1.95;;;;;;;8.33;100.00;99112.63;5116396;28;20038;-65
2021/12/28 07:32:31;;;;;;;8.40;1.67;;;;;;;8.30;100.00;99103.16;5116290;28;20032;-65
2021/12/28 07:34:57;;;;;;;7.75;2.17;;;;;;;8.25;100.00;99092.00;5115987;28;20445;-64
2021/12/28 07:37:22;;;;;;;5.93;1.73;;;;;;;8.33;100.00;99094.38;5116496;28;20034;-64
2021/12/28 07:39:50;;;;;;;7.22;1.70;;;;;;;8.33;100.00;99099.59;5116186;28;20077;-67
2021/12/28 07:42:16;;;;;;;9.95;1.80;;;;;;;8.35;100.00;99106.47;5116328;28;20047;-67
2021/12/28 07:44:41;;;;;;;9.52;1.90;;;;;;;8.30;100.00;99103.16;5116169;28;20039;-65
2021/12/28 07:47:06;;;;;;;9.00;2.10;;;;;;;8.30;100.00;99105.75;5115927;28;20354;-65
2021/12/28 07:49:32;;;;;;;8.10;1.92;;;;;;;8.37;100.00;99104.66;5115857;28;20176;-64
2021/12/28 07:51:57;;;;;;;7.75;2.00;;;;;;;8.32;100.00;99098.75;5115327;28;20043;-64
2021/12/28 07:54:22;;;;;;;6.05;2.05;;;;;;;8.32;100.00;99096.13;5115422;28;20031;-66
2021/12/28 07:56:48;;;;;;;10.30;2.30;;;;;;;8.32;100.00;99100.50;5116130;28;20043;-68
2021/12/28 07:59:13;;;;;;;10.85;2.65;;;;;;;8.41;100.00;99095.00;5115808;28;20034;-65
2021/12/28 08:01:39;;;;;;;9.23;2.38;;;;;;;8.33;100.00;99087.41;5115411;28;20035;-64
2021/12/28 08:04:04;;;;;;;11.70;2.60;;;;;;;8.40;100.00;99084.63;5116121;28;20111;-67
2021/12/28 08:06:29;;;;;;;7.93;2.70;;;;;;;8.35;100.00;99082.16;5115573;28;20358;-64
2021/12/28 08:08:55;;;;;;;8.85;2.80;;;;;;;8.38;100.00;99085.53;5115807;28;20107;-65
2021/12/28 08:11:22;;;;;;;7.13;2.85;;;;;;;8.46;100.00;99097.47;5115607;28;20059;-65
2021/12/28 08:13:47;;;;;;;8.15;3.00;;;;;;;8.38;100.00;99088.13;5115548;28;20048;-66
2021/12/28 08:16:12;;;;;;;6.13;2.88;;;;;;;8.30;100.00;99081.44;5115491;28;20028;-67
2021/12/28 08:18:38;;;;;;;6.55;3.08;;;;;;;8.48;100.00;99100.88;5115516;28;20028;-66
2021/12/28 08:21:03;;;;;;;9.10;3.40;;;;;;;8.44;100.00;99086.25;5116082;28;20050;-64
2021/12/28 08:23:29;;;;;;;8.05;3.58;;;;;;;8.41;100.00;99097.59;5115472;28;20027;-66
2021/12/28 08:25:54;;;;;;;11.20;3.20;;;;;;;8.40;100.00;99075.06;5115522;28;20102;-64
2021/12/28 08:28:19;;;;;;;7.95;3.22;;;;;;;8.45;100.00;99086.19;5115387;28;20027;-63
2021/12/28 08:30:44;;;;;;;9.40;3.63;;;;;;;8.37;100.00;99080.34;5115587;28;20036;-64
2021/12/28 08:33:10;;;;;;;7.93;3.60;;;;;;;8.46;100.00;99082.69;5115527;28;20028;-65
2021/12/28 08:35:39;;;;;;;8.00;4.15;;;;;;;8.49;100.00;99066.06;5115328;28;20362;-64
2021/12/28 08:38:06;;;;;;;6.50;3.90;;;;;;;8.52;100.00;99073.78;5115196;28;20027;-64
2021/12/28 08:40:31;;;;;;;6.78;3.72;;;;;;;8.50;100.00;99076.44;5115768;28;20034;-65
2021/12/28 08:42:57;;;;;;;9.70;4.20;;;;;;;8.53;100.00;99065.91;5115365;28;20036;-64
2021/12/28 08:45:22;;;;;;;9.93;4.88;;;;;;;8.60;100.00;99070.03;5115423;28;20403;-64
2021/12/28 08:47:49;;;;;;;9.80;5.45;;;;;;;8.63;100.00;99074.28;5115197;28;20053;-64
2021/12/28 08:50:16;;;;;;;11.32;5.03;;;;;;;8.67;100.00;99079.34;5115292;28;20027;-65
2021/12/28 08:52:41;;;;;;;9.38;4.60;;;;;;;8.58;100.00;99066.63;5115248;28;20023;-64
2021/12/28 08:55:07;;;;;;;8.65;5.35;;;;;;;8.67;100.00;99070.66;5115093;28;20034;-66
2021/12/28 08:57:33;;;;;;;7.68;5.20;;;;;;;8.63;100.00;99072.53;5115071;28;20028;-67
2021/12/28 08:59:58;;;;;;;12.48;5.93;;;;;;;8.66;100.00;99067.19;5115110;28;20358;-65
2021/12/28 09:02:24;;;;;;;11.77;5.75;;;;;;;8.72;100.00;99061.78;5115628;28;20035;-63
2021/12/28 09:04:49;;;;;;;14.18;6.03;;;;;;;8.64;100.00;99062.97;5119182;28;20458;-66
2021/12/28 09:07:16;;;;;;;9.75;6.10;;;;;;;8.67;100.00;99063.69;5119380;28;20028;-66
2021/12/28 09:09:42;;;;;;;9.68;6.00;;;;;;;8.67;100.00;99055.00;5119514;28;20389;-66
2021/12/28 09:12:08;;;;;;;11.27;6.72;;;;;;;8.73;100.00;99063.50;5118808;28;20034;-64
2021/12/28 09:14:34;;;;;;;9.88;6.65;;;;;;;8.67;100.00;99062.84;5118726;28;20036;-65
2021/12/28 09:17:00;;;;;;;11.05;7.18;;;;;;;8.79;100.00;99058.97;5119270;28;20052;-63
2021/12/28 09:19:25;;;;;;;10.02;7.43;;;;;;;8.86;100.00;99065.66;5119081;28;20038;-66
2021/12/28 09:21:50;;;;;;;12.98;8.55;;;;;;;8.79;100.00;99056.38;5119259;28;20031;-66
2021/12/28 09:24:16;;;;;;;11.63;8.00;;;;;;;8.86;100.00;99050.88;5119268;28;20059;-64
2021/12/28 09:26:41;;;;;;;10.30;8.30;;;;;;;8.89;100.00;99049.91;5118694;28;20409;-65
2021/12/28 09:29:07;;;;;;;11.85;8.32;;;;;;;8.92;100.00;99047.19;5118933;28;20031;-64
2021/12/28 09:31:33;;;;;;;10.32;8.32;;;;;;;8.94;100.00;99042.78;5118440;28;20040;-66
2021/12/28 09:33:59;;;;;;;12.60;8.05;;;;;;;8.99;100.00;99044.31;5118633;28;20035;-65
2021/12/28 09:36:25;;;;;;;12.23;8.65;;;;;;;8.97;100.00;99045.28;5118573;28;20028;-64
2021/12/28 09:38:50;;;;;;;12.32;9.13;;;;;;;8.97;100.00;99040.91;5118513;28;20063;-68
2021/12/28 09:41:16;;;;;;;11.15;8.20;;;;;;;8.98;100.00;99029.59;5118567;28;20110;-65
2021/12/28 09:43:42;;;;;;;11.98;7.80;;;;;;;9.13;100.00;99036.00;5118660;28;20027;-65
2021/12/28 09:46:07;;;;;;;10.60;8.25;;;;;;;9.08;100.00;99020.50;5118365;28;20051;-64
2021/12/28 09:48:33;;;;;;;11.73;8.32;;;;;;;9.02;100.00;99022.47;5118276;28;20050;-66
2021/12/28 09:51:00;;;;;;;11.20;8.73;;;;;;;8.99;100.00;99018.25;5118356;28;20028;-68
2021/12/28 09:53:26;;;;;;;10.25;8.38;;;;;;;9.05;100.00;99025.81;5118677;28;20036;-65
2021/12/28 09:55:51;;;;;;;10.45;8.30;;;;;;;9.11;100.00;99021.31;5117491;28;20042;-65
2021/12/28 09:58:17;;;;;;;12.18;7.78;;;;;;;9.15;100.00;99017.69;5118326;28;20112;-66
2021/12/28 10:00:42;;;;;;;11.35;7.70;;;;;;;9.22;100.00;99019.97;5118501;28;20122;-65
2021/12/28 10:03:08;;;;;;;9.88;7.95;;;;;;;9.22;100.00;99017.38;5117771;28;20112;-65
2021/12/28 10:05:34;;;;;;;10.35;7.20;;;;;;;9.29;100.00;99018.88;5118061;28;20024;-66
2021/12/28 10:08:01;;;;;;;8.35;7.13;;;;;;;9.30;100.00;99015.34;5117914;28;20131;-65
2021/12/28 10:10:39;;;;;;;13.07;7.47;;;;;;;9.23;100.00;99006.03;5117991;28;20035;-64
2021/12/28 10:13:10;;;;;;;9.32;7.30;;;;;;;9.28;100.00;98998.88;5117690;28;20074;-65
2021/12/28 10:15:38;;;;;;;10.45;7.15;;;;;;;9.24;100.00;98999.91;5116693;28;20027;-64
2021/12/28 10:18:07;;;;;;;11.35;7.78;;;;;;;9.17;100.00;98984.56;5118042;28;20074;-64
2021/12/28 10:20:41;;;;;;;10.80;7.43;;;;;;;9.40;100.00;98995.81;5117791;28;20031;-65
2021/12/28 10:23:10;;;;;;;9.43;6.20;;;;;;;9.32;100.00;98986.56;5117527;28;20036;-65
2021/12/28 10:25:39;;;;;;;10.00;6.03;;;;;;;9.39;100.00;98977.59;5117466;28;20019;-68
2021/12/28 10:28:11;;;;;;;6.35;5.53;;;;;;;9.37;100.00;98961.97;5117541;28;20070;-66
2021/12/28 10:30:48;;;;;;;8.60;5.15;;;;;;;9.43;100.00;98964.38;5117589;28;20447;-68
2021/12/28 10:33:16;;;;;;;7.90;5.75;;;;;;;9.45;100.00;98953.88;5117773;28;20078;-65
2021/12/28 10:35:48;;;;;;;7.68;5.30;;;;;;;9.52;100.00;98946.66;5117489;28;20110;-65
2021/12/28 10:38:17;;;;;;;6.28;4.15;;;;;;;9.57;100.00;98944.69;5117529;28;20088;-66
2021/12/28 10:40:52;;;;;;;6.30;3.80;;;;;;;9.65;100.00;98943.47;5117343;28;20030;-65
2021/12/28 10:43:20;;;;;;;6.03;3.42;;;;;;;9.53;100.00;98930.03;5117097;28;20028;-67
2021/12/28 10:46:00;;;;;;;5.60;3.80;;;;;;;9.65;100.00;98940.88;5117596;28;20077;-67
2021/12/28 10:48:38;;;;;;;5.45;2.47;;;;;;;9.68;100.00;98930.31;5117063;28;20134;-66
2021/12/28 10:51:13;;;;;;;5.30;2.90;;;;;;;9.66;100.00;98952.19;5117009;28;20049;-66
2021/12/28 10:54:06;;;;;;;3.15;2.50;;;;;;;9.74;100.00;98940.50;5117243;28;20027;-65
2021/12/28 10:56:40;;;;;;;4.32;2.55;;;;;;;9.67;100.00;98944.28;5116478;28;20027;-65
2021/12/28 10:59:07;;;;;;;4.63;2.88;;;;;;;9.58;100.00;98934.19;5117103;28;20035;-66
2021/12/28 11:01:37;;;;;;;4.75;3.20;;;;;;;9.54;100.00;98934.34;5116744;28;20427;-66
2021/12/28 11:04:11;;;;;;;5.45;3.10;;;;;;;9.57;100.00;98929.88;5099010;28;20342;-67
2021/12/28 11:06:39;;;;;;;5.55;3.28;;;;;;;9.62;100.00;98924.47;5117186;28;20122;-67
2021/12/28 11:09:26;;;;;;;5.88;3.70;;;;;;;9.55;100.00;98912.56;5116681;28;20031;-66
2021/12/28 11:11:53;;;;;;;6.25;3.80;;;;;;;9.51;100.00;98916.22;5116723;28;20375;-65
2021/12/28 11:14:21;;;;;;;4.43;3.55;;;;;;;9.47;100.00;98909.41;5116571;28;20040;-65
2021/12/28 11:16:57;;;;;;;4.60;4.10;;;;;;;9.49;100.00;98908.47;5116920;28;20028;-64
2021/12/28 11:19:28;;;;;;;3.63;3.22;;;;;;;9.52;100.00;98905.72;5116583;28;20027;-65
2021/12/28 11:21:56;;;;;;;5.97;3.30;;;;;;;9.47;100.00;98896.38;5116415;28;20024;-65
2021/12/28 11:24:27;;;;;;;4.05;3.20;;;;;;;9.42;100.00;98873.91;5116451;28;20322;-66
2021/12/28 11:26:52;;;;;;;4.28;3.22;;;;;;;9.43;100.00;98903.47;5116204;28;20037;-65